sensor_id;sensor_type;location;lat;lon;timestamp;P1;durP1;ratioP1;P2;durP2;ratioP2
33644;SDS011;19986;48.190;16.366;2023-03-23T00:01:26;44.63;;;41.92;;
33644;SDS011;19986;48.190;16.366;2023-03-23T00:03:55;44.92;;;41.95;;
33644;SDS011;19986;48.190;16.366;2023-03-23T00:06:22;46.97;;;43.75;;
33644;SDS011;19986;48.190;16.366;2023-03-23T00:08:53;43.58;;;40.88;;
33644;SDS011;19986;48.190;16.366;2023-03-23T00:11:28;44.05;;;41.22;;
33644;SDS011;19986;48.190;16.366;2023-03-23T00:13:55;43.03;;;40.53;;
33644;SDS011;19986;48.190;16.366;2023-03-23T00:16:24;45.45;;;42.67;;
33644;SDS011;19986;48.190;16.366;2023-03-23T00:19:05;44.60;;;41.58;;
33644;SDS011;19986;48.190;16.366;2023-03-23T00:21:34;44.03;;;41.35;;
33644;SDS011;19986;48.190;16.366;2023-03-23T00:26:41;44.63;;;41.60;;
33644;SDS011;19986;48.190;16.366;2023-03-23T00:29:15;45.00;;;42.47;;
33644;SDS011;19986;48.190;16.366;2023-03-23T00:31:47;46.42;;;43.70;;
33644;SDS011;19986;48.190;16.366;2023-03-23T00:34:14;43.45;;;40.65;;
33644;SDS011;19986;48.190;16.366;2023-03-23T00:36:54;44.17;;;41.67;;
33644;SDS011;19986;48.190;16.366;2023-03-23T00:39:25;45.10;;;42.60;;
33644;SDS011;19986;48.190;16.366;2023-03-23T00:41:53;45.22;;;42.33;;
33644;SDS011;19986;48.190;16.366;2023-03-23T00:44:29;46.63;;;43.65;;
33644;SDS011;19986;48.190;16.366;2023-03-23T00:46:56;44.33;;;41.53;;
33644;SDS011;19986;48.190;16.366;2023-03-23T00:49:23;44.85;;;42.00;;
33644;SDS011;19986;48.190;16.366;2023-03-23T00:51:54;44.60;;;41.90;;
33644;SDS011;19986;48.190;16.366;2023-03-23T00:54:22;47.08;;;44.00;;
33644;SDS011;19986;48.190;16.366;2023-03-23T00:56:50;46.53;;;43.55;;
33644;SDS011;19986;48.190;16.366;2023-03-23T00:59:16;45.92;;;42.83;;
33644;SDS011;19986;48.190;16.366;2023-03-23T01:01:42;44.35;;;41.67;;
33644;SDS011;19986;48.190;16.366;2023-03-23T01:04:08;46.70;;;43.90;;
33644;SDS011;19986;48.190;16.366;2023-03-23T01:06:38;47.30;;;44.40;;
33644;SDS011;19986;48.190;16.366;2023-03-23T01:09:09;45.50;;;42.85;;
33644;SDS011;19986;48.190;16.366;2023-03-23T01:11:36;47.90;;;45.05;;
33644;SDS011;19986;48.190;16.366;2023-03-23T01:14:03;46.63;;;43.70;;
33644;SDS011;19986;48.190;16.366;2023-03-23T01:16:29;46.15;;;43.45;;
33644;SDS011;19986;48.190;16.366;2023-03-23T01:18:58;49.03;;;46.13;;
33644;SDS011;19986;48.190;16.366;2023-03-23T01:21:24;47.50;;;44.80;;
33644;SDS011;19986;48.190;16.366;2023-03-23T01:23:50;48.15;;;45.10;;
33644;SDS011;19986;48.190;16.366;2023-03-23T01:26:18;46.60;;;43.88;;
33644;SDS011;19986;48.190;16.366;2023-03-23T01:28:48;45.45;;;42.95;;
33644;SDS011;19986;48.190;16.366;2023-03-23T01:31:16;44.83;;;42.22;;
33644;SDS011;19986;48.190;16.366;2023-03-23T01:33:44;43.75;;;40.97;;
33644;SDS011;19986;48.190;16.366;2023-03-23T01:36:12;44.65;;;41.88;;
33644;SDS011;19986;48.190;16.366;2023-03-23T01:38:45;47.47;;;44.72;;
33644;SDS011;19986;48.190;16.366;2023-03-23T01:41:13;43.90;;;41.17;;
33644;SDS011;19986;48.190;16.366;2023-03-23T01:46:30;42.03;;;39.63;;
33644;SDS011;19986;48.190;16.366;2023-03-23T01:49:19;43.25;;;40.75;;
33644;SDS011;19986;48.190;16.366;2023-03-23T01:51:52;42.50;;;40.22;;
33644;SDS011;19986;48.190;16.366;2023-03-23T01:54:21;42.45;;;40.05;;
33644;SDS011;19986;48.190;16.366;2023-03-23T01:57:02;43.20;;;40.63;;
33644;SDS011;19986;48.190;16.366;2023-03-23T01:59:36;43.63;;;41.13;;
33644;SDS011;19986;48.190;16.366;2023-03-23T02:02:03;43.88;;;41.47;;
33644;SDS011;19986;48.190;16.366;2023-03-23T02:04:30;43.28;;;41.00;;
33644;SDS011;19986;48.190;16.366;2023-03-23T02:07:00;43.25;;;40.67;;
33644;SDS011;19986;48.190;16.366;2023-03-23T02:09:28;41.63;;;39.33;;
33644;SDS011;19986;48.190;16.366;2023-03-23T02:11:55;43.33;;;40.95;;
33644;SDS011;19986;48.190;16.366;2023-03-23T02:14:23;43.53;;;40.90;;
33644;SDS011;19986;48.190;16.366;2023-03-23T02:33:27;44.05;;;41.65;;
33644;SDS011;19986;48.190;16.366;2023-03-23T02:36:13;42.40;;;39.97;;
33644;SDS011;19986;48.190;16.366;2023-03-23T02:38:49;42.20;;;39.90;;
33644;SDS011;19986;48.190;16.366;2023-03-23T02:41:21;41.35;;;38.92;;
33644;SDS011;19986;48.190;16.366;2023-03-23T02:43:52;43.55;;;41.33;;
33644;SDS011;19986;48.190;16.366;2023-03-23T02:46:20;42.70;;;40.40;;
33644;SDS011;19986;48.190;16.366;2023-03-23T02:48:47;43.45;;;41.20;;
33644;SDS011;19986;48.190;16.366;2023-03-23T02:51:17;44.17;;;41.50;;
33644;SDS011;19986;48.190;16.366;2023-03-23T02:53:45;43.25;;;40.85;;
33644;SDS011;19986;48.190;16.366;2023-03-23T02:56:12;43.78;;;41.47;;
33644;SDS011;19986;48.190;16.366;2023-03-23T02:58:40;43.45;;;41.15;;
33644;SDS011;19986;48.190;16.366;2023-03-23T03:03:41;43.92;;;41.47;;
33644;SDS011;19986;48.190;16.366;2023-03-23T03:06:14;42.60;;;40.38;;
33644;SDS011;19986;48.190;16.366;2023-03-23T03:11:59;44.70;;;42.30;;
33644;SDS011;19986;48.190;16.366;2023-03-23T03:14:41;42.58;;;40.28;;
33644;SDS011;19986;48.190;16.366;2023-03-23T03:17:23;43.15;;;40.60;;
33644;SDS011;19986;48.190;16.366;2023-03-23T03:19:52;44.65;;;42.25;;
33644;SDS011;19986;48.190;16.366;2023-03-23T03:22:22;41.95;;;39.75;;
33644;SDS011;19986;48.190;16.366;2023-03-23T03:24:54;46.47;;;43.80;;
33644;SDS011;19986;48.190;16.366;2023-03-23T03:27:23;43.95;;;41.45;;
33644;SDS011;19986;48.190;16.366;2023-03-23T03:29:51;47.85;;;44.47;;
33644;SDS011;19986;48.190;16.366;2023-03-23T03:32:22;54.72;;;50.22;;
33644;SDS011;19986;48.190;16.366;2023-03-23T03:34:58;59.83;;;54.10;;
33644;SDS011;19986;48.190;16.366;2023-03-23T03:37:25;45.55;;;42.42;;
33644;SDS011;19986;48.190;16.366;2023-03-23T03:39:51;44.33;;;41.65;;
33644;SDS011;19986;48.190;16.366;2023-03-23T03:42:17;43.58;;;40.70;;
33644;SDS011;19986;48.190;16.366;2023-03-23T03:44:43;48.28;;;45.30;;
33644;SDS011;19986;48.190;16.366;2023-03-23T03:47:09;44.78;;;42.03;;
33644;SDS011;19986;48.190;16.366;2023-03-23T03:49:35;45.97;;;43.17;;
33644;SDS011;19986;48.190;16.366;2023-03-23T03:52:00;44.60;;;42.10;;
33644;SDS011;19986;48.190;16.366;2023-03-23T03:54:27;46.95;;;44.03;;
33644;SDS011;19986;48.190;16.366;2023-03-23T03:56:52;45.83;;;43.38;;
33644;SDS011;19986;48.190;16.366;2023-03-23T03:59:23;44.08;;;41.63;;
33644;SDS011;19986;48.190;16.366;2023-03-23T04:01:49;45.58;;;42.78;;
33644;SDS011;19986;48.190;16.366;2023-03-23T04:04:19;44.72;;;42.22;;
33644;SDS011;19986;48.190;16.366;2023-03-23T04:06:47;44.35;;;41.85;;
33644;SDS011;19986;48.190;16.366;2023-03-23T04:09:14;45.25;;;42.53;;
33644;SDS011;19986;48.190;16.366;2023-03-23T04:11:40;45.10;;;42.72;;
33644;SDS011;19986;48.190;16.366;2023-03-23T04:14:06;43.47;;;40.97;;
33644;SDS011;19986;48.190;16.366;2023-03-23T04:16:32;44.30;;;41.67;;
33644;SDS011;19986;48.190;16.366;2023-03-23T04:19:00;46.17;;;43.00;;
33644;SDS011;19986;48.190;16.366;2023-03-23T04:21:27;42.25;;;39.90;;
33644;SDS011;19986;48.190;16.366;2023-03-23T04:23:54;43.88;;;41.47;;
33644;SDS011;19986;48.190;16.366;2023-03-23T04:26:25;43.17;;;40.90;;
33644;SDS011;19986;48.190;16.366;2023-03-23T04:28:54;45.10;;;42.75;;
33644;SDS011;19986;48.190;16.366;2023-03-23T04:31:21;43.92;;;41.63;;
33644;SDS011;19986;48.190;16.366;2023-03-23T04:33:50;45.75;;;43.15;;
33644;SDS011;19986;48.190;16.366;2023-03-23T04:36:20;44.65;;;41.83;;
33644;SDS011;19986;48.190;16.366;2023-03-23T04:38:47;44.55;;;42.00;;
33644;SDS011;19986;48.190;16.366;2023-03-23T04:41:15;44.67;;;42.22;;
33644;SDS011;19986;48.190;16.366;2023-03-23T04:43:42;44.33;;;41.92;;
33644;SDS011;19986;48.190;16.366;2023-03-23T04:46:08;43.03;;;40.55;;
33644;SDS011;19986;48.190;16.366;2023-03-23T04:48:34;44.38;;;41.83;;
33644;SDS011;19986;48.190;16.366;2023-03-23T04:51:01;44.63;;;42.03;;
33644;SDS011;19986;48.190;16.366;2023-03-23T04:53:29;44.25;;;41.58;;
33644;SDS011;19986;48.190;16.366;2023-03-23T04:55:56;42.42;;;39.83;;
33644;SDS011;19986;48.190;16.366;2023-03-23T04:58:22;43.10;;;40.70;;
33644;SDS011;19986;48.190;16.366;2023-03-23T05:00:49;44.33;;;41.67;;
33644;SDS011;19986;48.190;16.366;2023-03-23T05:03:16;46.65;;;43.85;;
33644;SDS011;19986;48.190;16.366;2023-03-23T05:05:43;44.13;;;41.53;;
33644;SDS011;19986;48.190;16.366;2023-03-23T05:08:12;43.42;;;40.88;;
33644;SDS011;19986;48.190;16.366;2023-03-23T05:10:39;44.97;;;42.25;;
33644;SDS011;19986;48.190;16.366;2023-03-23T05:13:05;44.92;;;42.28;;
33644;SDS011;19986;48.190;16.366;2023-03-23T05:15:31;43.25;;;40.45;;
33644;SDS011;19986;48.190;16.366;2023-03-23T05:17:57;42.95;;;40.55;;
33644;SDS011;19986;48.190;16.366;2023-03-23T05:20:23;45.75;;;43.03;;
33644;SDS011;19986;48.190;16.366;2023-03-23T05:22:50;45.42;;;42.90;;
33644;SDS011;19986;48.190;16.366;2023-03-23T05:25:16;45.15;;;42.30;;
33644;SDS011;19986;48.190;16.366;2023-03-23T05:27:47;46.67;;;44.00;;
33644;SDS011;19986;48.190;16.366;2023-03-23T05:30:18;44.97;;;42.10;;
33644;SDS011;19986;48.190;16.366;2023-03-23T05:32:47;44.33;;;41.92;;
33644;SDS011;19986;48.190;16.366;2023-03-23T05:35:17;44.38;;;41.53;;
33644;SDS011;19986;48.190;16.366;2023-03-23T05:37:43;42.15;;;39.55;;
33644;SDS011;19986;48.190;16.366;2023-03-23T05:40:10;44.70;;;42.10;;
33644;SDS011;19986;48.190;16.366;2023-03-23T05:42:37;47.88;;;44.78;;
33644;SDS011;19986;48.190;16.366;2023-03-23T05:45:06;46.55;;;43.60;;
33644;SDS011;19986;48.190;16.366;2023-03-23T05:47:34;47.72;;;44.80;;
33644;SDS011;19986;48.190;16.366;2023-03-23T05:50:00;45.85;;;43.25;;
33644;SDS011;19986;48.190;16.366;2023-03-23T05:52:26;44.95;;;41.97;;
33644;SDS011;19986;48.190;16.366;2023-03-23T05:54:52;47.03;;;44.22;;
33644;SDS011;19986;48.190;16.366;2023-03-23T05:57:18;43.55;;;40.72;;
33644;SDS011;19986;48.190;16.366;2023-03-23T05:59:47;45.00;;;42.33;;
33644;SDS011;19986;48.190;16.366;2023-03-23T06:02:13;44.50;;;41.88;;
33644;SDS011;19986;48.190;16.366;2023-03-23T06:04:41;43.88;;;41.00;;
33644;SDS011;19986;48.190;16.366;2023-03-23T06:07:08;45.05;;;42.38;;
33644;SDS011;19986;48.190;16.366;2023-03-23T06:09:38;46.00;;;43.05;;
33644;SDS011;19986;48.190;16.366;2023-03-23T06:12:05;46.30;;;43.40;;
33644;SDS011;19986;48.190;16.366;2023-03-23T06:14:32;49.90;;;46.78;;
33644;SDS011;19986;48.190;16.366;2023-03-23T06:16:59;45.95;;;43.08;;
33644;SDS011;19986;48.190;16.366;2023-03-23T06:19:25;45.05;;;42.28;;
33644;SDS011;19986;48.190;16.366;2023-03-23T06:21:52;46.78;;;43.40;;
33644;SDS011;19986;48.190;16.366;2023-03-23T06:24:21;46.85;;;43.95;;
33644;SDS011;19986;48.190;16.366;2023-03-23T06:26:47;49.22;;;45.80;;
33644;SDS011;19986;48.190;16.366;2023-03-23T06:29:15;47.25;;;43.13;;
33644;SDS011;19986;48.190;16.366;2023-03-23T06:31:47;50.70;;;47.03;;
33644;SDS011;19986;48.190;16.366;2023-03-23T06:34:16;49.60;;;46.00;;
33644;SDS011;19986;48.190;16.366;2023-03-23T06:36:42;49.95;;;46.75;;
33644;SDS011;19986;48.190;16.366;2023-03-23T06:39:10;50.35;;;46.60;;
33644;SDS011;19986;48.190;16.366;2023-03-23T06:41:36;49.22;;;45.83;;
33644;SDS011;19986;48.190;16.366;2023-03-23T06:44:02;48.03;;;45.10;;
33644;SDS011;19986;48.190;16.366;2023-03-23T06:46:28;49.45;;;45.90;;
33644;SDS011;19986;48.190;16.366;2023-03-23T06:48:54;51.22;;;47.85;;
33644;SDS011;19986;48.190;16.366;2023-03-23T06:51:20;47.45;;;43.83;;
33644;SDS011;19986;48.190;16.366;2023-03-23T06:53:46;61.17;;;56.13;;
33644;SDS011;19986;48.190;16.366;2023-03-23T06:56:13;48.63;;;45.08;;
33644;SDS011;19986;48.190;16.366;2023-03-23T06:58:39;48.85;;;45.72;;
33644;SDS011;19986;48.190;16.366;2023-03-23T07:01:07;47.95;;;44.42;;
33644;SDS011;19986;48.190;16.366;2023-03-23T07:03:34;48.30;;;45.00;;
33644;SDS011;19986;48.190;16.366;2023-03-23T07:06:02;50.53;;;46.90;;
33644;SDS011;19986;48.190;16.366;2023-03-23T07:08:29;48.70;;;45.40;;
33644;SDS011;19986;48.190;16.366;2023-03-23T07:10:55;49.95;;;45.95;;
33644;SDS011;19986;48.190;16.366;2023-03-23T07:13:22;47.53;;;44.35;;
33644;SDS011;19986;48.190;16.366;2023-03-23T07:15:49;46.63;;;43.65;;
33644;SDS011;19986;48.190;16.366;2023-03-23T07:18:20;47.40;;;44.17;;
33644;SDS011;19986;48.190;16.366;2023-03-23T07:20:47;48.60;;;45.50;;
33644;SDS011;19986;48.190;16.366;2023-03-23T07:23:17;47.03;;;43.72;;
33644;SDS011;19986;48.190;16.366;2023-03-23T07:25:43;48.63;;;45.33;;
33644;SDS011;19986;48.190;16.366;2023-03-23T07:28:11;46.33;;;42.90;;
33644;SDS011;19986;48.190;16.366;2023-03-23T07:30:37;49.15;;;45.70;;
33644;SDS011;19986;48.190;16.366;2023-03-23T07:33:04;48.60;;;45.30;;
33644;SDS011;19986;48.190;16.366;2023-03-23T07:35:31;49.17;;;45.28;;
33644;SDS011;19986;48.190;16.366;2023-03-23T07:37:58;48.05;;;45.05;;
33644;SDS011;19986;48.190;16.366;2023-03-23T07:40:25;49.42;;;45.55;;
33644;SDS011;19986;48.190;16.366;2023-03-23T07:42:55;48.05;;;44.38;;
33644;SDS011;19986;48.190;16.366;2023-03-23T07:45:22;47.70;;;44.30;;
33644;SDS011;19986;48.190;16.366;2023-03-23T07:47:49;47.92;;;44.05;;
33644;SDS011;19986;48.190;16.366;2023-03-23T07:50:15;48.53;;;44.35;;
33644;SDS011;19986;48.190;16.366;2023-03-23T07:52:42;50.80;;;47.28;;
33644;SDS011;19986;48.190;16.366;2023-03-23T07:55:08;49.03;;;45.38;;
33644;SDS011;19986;48.190;16.366;2023-03-23T07:57:46;48.92;;;45.30;;
33644;SDS011;19986;48.190;16.366;2023-03-23T08:00:17;47.53;;;44.17;;
33644;SDS011;19986;48.190;16.366;2023-03-23T08:02:48;48.85;;;45.47;;
33644;SDS011;19986;48.190;16.366;2023-03-23T08:05:21;47.67;;;44.17;;
33644;SDS011;19986;48.190;16.366;2023-03-23T08:07:48;48.92;;;45.38;;
33644;SDS011;19986;48.190;16.366;2023-03-23T08:10:15;48.75;;;45.28;;
33644;SDS011;19986;48.190;16.366;2023-03-23T08:12:43;50.17;;;46.70;;
33644;SDS011;19986;48.190;16.366;2023-03-23T08:15:11;48.53;;;45.05;;
33644;SDS011;19986;48.190;16.366;2023-03-23T08:17:37;47.85;;;44.17;;
33644;SDS011;19986;48.190;16.366;2023-03-23T08:20:04;47.22;;;43.78;;
33644;SDS011;19986;48.190;16.366;2023-03-23T08:22:34;49.38;;;45.15;;
33644;SDS011;19986;48.190;16.366;2023-03-23T08:25:01;45.75;;;42.65;;
33644;SDS011;19986;48.190;16.366;2023-03-23T08:27:28;47.20;;;43.72;;
33644;SDS011;19986;48.190;16.366;2023-03-23T08:29:54;49.05;;;45.72;;
33644;SDS011;19986;48.190;16.366;2023-03-23T08:32:20;47.22;;;44.03;;
33644;SDS011;19986;48.190;16.366;2023-03-23T08:34:47;49.03;;;45.63;;
33644;SDS011;19986;48.190;16.366;2023-03-23T08:37:14;47.00;;;43.65;;
33644;SDS011;19986;48.190;16.366;2023-03-23T08:39:40;49.90;;;45.33;;
33644;SDS011;19986;48.190;16.366;2023-03-23T08:42:08;49.95;;;46.20;;
33644;SDS011;19986;48.190;16.366;2023-03-23T08:44:35;46.28;;;43.03;;
33644;SDS011;19986;48.190;16.366;2023-03-23T08:47:02;50.15;;;46.53;;
33644;SDS011;19986;48.190;16.366;2023-03-23T08:49:29;45.75;;;42.33;;
33644;SDS011;19986;48.190;16.366;2023-03-23T08:51:58;50.13;;;46.55;;
33644;SDS011;19986;48.190;16.366;2023-03-23T08:54:24;47.83;;;44.17;;
33644;SDS011;19986;48.190;16.366;2023-03-23T08:56:51;47.58;;;43.92;;
33644;SDS011;19986;48.190;16.366;2023-03-23T08:59:16;48.35;;;44.58;;
33644;SDS011;19986;48.190;16.366;2023-03-23T09:01:42;48.67;;;44.92;;
33644;SDS011;19986;48.190;16.366;2023-03-23T09:04:08;46.97;;;43.67;;
33644;SDS011;19986;48.190;16.366;2023-03-23T09:06:36;46.63;;;43.28;;
33644;SDS011;19986;48.190;16.366;2023-03-23T09:09:03;48.83;;;45.47;;
33644;SDS011;19986;48.190;16.366;2023-03-23T09:11:33;49.60;;;45.88;;
33644;SDS011;19986;48.190;16.366;2023-03-23T09:13:59;46.42;;;43.35;;
33644;SDS011;19986;48.190;16.366;2023-03-23T09:16:26;46.70;;;43.33;;
33644;SDS011;19986;48.190;16.366;2023-03-23T09:18:53;46.45;;;43.13;;
33644;SDS011;19986;48.190;16.366;2023-03-23T09:21:25;46.45;;;42.97;;
33644;SDS011;19986;48.190;16.366;2023-03-23T09:23:52;47.13;;;43.75;;
33644;SDS011;19986;48.190;16.366;2023-03-23T09:26:21;47.35;;;44.25;;
33644;SDS011;19986;48.190;16.366;2023-03-23T09:28:47;48.47;;;45.28;;
33644;SDS011;19986;48.190;16.366;2023-03-23T09:31:13;48.42;;;45.28;;
33644;SDS011;19986;48.190;16.366;2023-03-23T09:33:39;46.92;;;43.83;;
33644;SDS011;19986;48.190;16.366;2023-03-23T09:36:05;46.20;;;42.78;;
33644;SDS011;19986;48.190;16.366;2023-03-23T09:38:33;47.63;;;44.28;;
33644;SDS011;19986;48.190;16.366;2023-03-23T09:49:28;46.08;;;42.63;;
33644;SDS011;19986;48.190;16.366;2023-03-23T09:52:16;47.05;;;43.33;;
33644;SDS011;19986;48.190;16.366;2023-03-23T09:54:43;47.47;;;43.20;;
33644;SDS011;19986;48.190;16.366;2023-03-23T09:57:36;44.50;;;41.53;;
33644;SDS011;19986;48.190;16.366;2023-03-23T10:03:02;46.08;;;43.20;;
33644;SDS011;19986;48.190;16.366;2023-03-23T10:05:39;47.80;;;44.38;;
33644;SDS011;19986;48.190;16.366;2023-03-23T10:10:57;46.05;;;42.95;;
33644;SDS011;19986;48.190;16.366;2023-03-23T10:16:08;45.85;;;42.13;;
33644;SDS011;19986;48.190;16.366;2023-03-23T10:18:43;46.70;;;42.88;;
33644;SDS011;19986;48.190;16.366;2023-03-23T10:21:14;45.78;;;42.67;;
33644;SDS011;19986;48.190;16.366;2023-03-23T10:23:45;48.88;;;44.55;;
33644;SDS011;19986;48.190;16.366;2023-03-23T10:26:33;45.63;;;42.25;;
33644;SDS011;19986;48.190;16.366;2023-03-23T10:29:21;47.35;;;43.80;;
33644;SDS011;19986;48.190;16.366;2023-03-23T10:32:08;45.60;;;41.95;;
33644;SDS011;19986;48.190;16.366;2023-03-23T10:37:29;45.17;;;41.85;;
33644;SDS011;19986;48.190;16.366;2023-03-23T10:40:02;45.63;;;42.20;;
33644;SDS011;19986;48.190;16.366;2023-03-23T10:42:35;43.70;;;40.38;;
33644;SDS011;19986;48.190;16.366;2023-03-23T10:45:15;46.33;;;43.25;;
33644;SDS011;19986;48.190;16.366;2023-03-23T10:50:28;45.83;;;42.67;;
33644;SDS011;19986;48.190;16.366;2023-03-23T10:52:57;47.75;;;44.00;;
33644;SDS011;19986;48.190;16.366;2023-03-23T10:55:34;46.33;;;42.80;;
33644;SDS011;19986;48.190;16.366;2023-03-23T10:58:11;47.95;;;44.53;;
33644;SDS011;19986;48.190;16.366;2023-03-23T11:00:47;47.58;;;43.88;;
33644;SDS011;19986;48.190;16.366;2023-03-23T11:05:43;47.63;;;44.05;;
33644;SDS011;19986;48.190;16.366;2023-03-23T11:08:18;44.10;;;40.92;;
33644;SDS011;19986;48.190;16.366;2023-03-23T11:10:50;46.05;;;42.72;;
33644;SDS011;19986;48.190;16.366;2023-03-23T11:13:18;46.63;;;43.35;;
33644;SDS011;19986;48.190;16.366;2023-03-23T11:15:46;47.75;;;44.25;;
33644;SDS011;19986;48.190;16.366;2023-03-23T11:21:03;46.55;;;43.25;;
33644;SDS011;19986;48.190;16.366;2023-03-23T11:23:34;43.88;;;40.53;;
33644;SDS011;19986;48.190;16.366;2023-03-23T11:26:09;44.50;;;41.72;;
33644;SDS011;19986;48.190;16.366;2023-03-23T11:28:52;43.83;;;40.88;;
33644;SDS011;19986;48.190;16.366;2023-03-23T11:31:41;43.35;;;40.67;;
33644;SDS011;19986;48.190;16.366;2023-03-23T11:34:20;40.08;;;37.60;;
33644;SDS011;19986;48.190;16.366;2023-03-23T11:39:46;41.13;;;38.30;;
33644;SDS011;19986;48.190;16.366;2023-03-23T11:42:44;41.83;;;38.53;;
33644;SDS011;19986;48.190;16.366;2023-03-23T11:53:37;39.78;;;37.42;;
33644;SDS011;19986;48.190;16.366;2023-03-23T11:56:25;41.60;;;38.95;;
33644;SDS011;19986;48.190;16.366;2023-03-23T11:58:58;40.75;;;38.05;;
33644;SDS011;19986;48.190;16.366;2023-03-23T12:01:38;39.50;;;36.85;;
33644;SDS011;19986;48.190;16.366;2023-03-23T12:10:02;38.50;;;35.97;;
33644;SDS011;19986;48.190;16.366;2023-03-23T12:12:59;39.08;;;36.42;;
33644;SDS011;19986;48.190;16.366;2023-03-23T12:16:09;39.33;;;36.83;;
33644;SDS011;19986;48.190;16.366;2023-03-23T12:18:52;40.40;;;37.55;;
33644;SDS011;19986;48.190;16.366;2023-03-23T12:32:47;42.83;;;39.67;;
33644;SDS011;19986;48.190;16.366;2023-03-23T12:41:29;39.08;;;36.28;;
33644;SDS011;19986;48.190;16.366;2023-03-23T12:44:16;38.50;;;35.90;;
33644;SDS011;19986;48.190;16.366;2023-03-23T12:49:23;38.50;;;35.85;;
33644;SDS011;19986;48.190;16.366;2023-03-23T12:51:59;36.90;;;34.45;;
33644;SDS011;19986;48.190;16.366;2023-03-23T12:54:46;38.33;;;35.58;;
33644;SDS011;19986;48.190;16.366;2023-03-23T12:59:54;39.72;;;36.83;;
33644;SDS011;19986;48.190;16.366;2023-03-23T13:02:29;39.13;;;36.72;;
33644;SDS011;19986;48.190;16.366;2023-03-23T13:07:53;37.50;;;35.38;;
33644;SDS011;19986;48.190;16.366;2023-03-23T13:10:32;37.85;;;35.50;;
33644;SDS011;19986;48.190;16.366;2023-03-23T13:13:05;37.50;;;35.05;;
33644;SDS011;19986;48.190;16.366;2023-03-23T13:15:54;37.75;;;35.53;;
33644;SDS011;19986;48.190;16.366;2023-03-23T13:18:49;39.50;;;37.13;;
33644;SDS011;19986;48.190;16.366;2023-03-23T13:21:25;36.17;;;33.78;;
33644;SDS011;19986;48.190;16.366;2023-03-23T13:26:36;36.67;;;34.10;;
33644;SDS011;19986;48.190;16.366;2023-03-23T13:31:49;37.50;;;35.50;;
33644;SDS011;19986;48.190;16.366;2023-03-23T13:34:29;36.47;;;34.17;;
33644;SDS011;19986;48.190;16.366;2023-03-23T13:36:57;37.80;;;35.33;;
33644;SDS011;19986;48.190;16.366;2023-03-23T13:39:51;39.03;;;36.78;;
33644;SDS011;19986;48.190;16.366;2023-03-23T13:50:00;37.50;;;35.03;;
33644;SDS011;19986;48.190;16.366;2023-03-23T14:10:56;37.90;;;34.85;;
33644;SDS011;19986;48.190;16.366;2023-03-23T14:16:14;37.35;;;35.05;;
33644;SDS011;19986;48.190;16.366;2023-03-23T14:18:58;38.88;;;36.38;;
33644;SDS011;19986;48.190;16.366;2023-03-23T14:24:22;37.08;;;34.95;;
33644;SDS011;19986;48.190;16.366;2023-03-23T14:27:11;36.45;;;34.05;;
33644;SDS011;19986;48.190;16.366;2023-03-23T14:29:45;35.95;;;33.97;;
33644;SDS011;19986;48.190;16.366;2023-03-23T14:32:22;37.00;;;34.88;;
33644;SDS011;19986;48.190;16.366;2023-03-23T14:34:51;37.53;;;34.85;;
33644;SDS011;19986;48.190;16.366;2023-03-23T14:37:18;37.75;;;35.40;;
33644;SDS011;19986;48.190;16.366;2023-03-23T14:39:46;36.17;;;34.17;;
33644;SDS011;19986;48.190;16.366;2023-03-23T14:42:15;35.40;;;33.30;;
33644;SDS011;19986;48.190;16.366;2023-03-23T14:44:49;35.25;;;33.00;;
33644;SDS011;19986;48.190;16.366;2023-03-23T14:47:18;36.25;;;34.25;;
33644;SDS011;19986;48.190;16.366;2023-03-23T14:49:46;35.45;;;33.40;;
33644;SDS011;19986;48.190;16.366;2023-03-23T14:52:17;36.08;;;33.58;;
33644;SDS011;19986;48.190;16.366;2023-03-23T14:54:44;36.42;;;34.30;;
33644;SDS011;19986;48.190;16.366;2023-03-23T14:57:12;37.65;;;34.67;;
33644;SDS011;19986;48.190;16.366;2023-03-23T14:59:47;36.60;;;33.97;;
33644;SDS011;19986;48.190;16.366;2023-03-23T15:05:00;38.22;;;36.03;;
33644;SDS011;19986;48.190;16.366;2023-03-23T15:07:34;36.83;;;34.92;;
33644;SDS011;19986;48.190;16.366;2023-03-23T15:10:05;35.65;;;33.75;;
33644;SDS011;19986;48.190;16.366;2023-03-23T15:12:32;36.58;;;34.35;;
33644;SDS011;19986;48.190;16.366;2023-03-23T15:15:00;35.78;;;33.65;;
33644;SDS011;19986;48.190;16.366;2023-03-23T15:17:29;36.40;;;34.50;;
33644;SDS011;19986;48.190;16.366;2023-03-23T15:20:07;34.50;;;32.60;;
33644;SDS011;19986;48.190;16.366;2023-03-23T15:22:51;35.15;;;33.03;;
33644;SDS011;19986;48.190;16.366;2023-03-23T15:27:53;35.88;;;33.88;;
33644;SDS011;19986;48.190;16.366;2023-03-23T15:30:53;40.70;;;36.67;;
33644;SDS011;19986;48.190;16.366;2023-03-23T15:33:23;36.88;;;34.85;;
33644;SDS011;19986;48.190;16.366;2023-03-23T15:35:56;34.95;;;32.85;;
33644;SDS011;19986;48.190;16.366;2023-03-23T15:38:23;38.15;;;36.08;;
33644;SDS011;19986;48.190;16.366;2023-03-23T15:40:52;37.13;;;34.92;;
33644;SDS011;19986;48.190;16.366;2023-03-23T15:51:16;37.42;;;35.22;;
33644;SDS011;19986;48.190;16.366;2023-03-23T15:53:44;38.15;;;35.58;;
33644;SDS011;19986;48.190;16.366;2023-03-23T15:56:12;37.97;;;35.67;;
33644;SDS011;19986;48.190;16.366;2023-03-23T15:58:39;36.10;;;34.00;;
33644;SDS011;19986;48.190;16.366;2023-03-23T16:01:07;38.70;;;36.13;;
33644;SDS011;19986;48.190;16.366;2023-03-23T16:06:25;38.88;;;36.20;;
33644;SDS011;19986;48.190;16.366;2023-03-23T16:08:53;38.47;;;35.85;;
33644;SDS011;19986;48.190;16.366;2023-03-23T16:11:20;38.20;;;35.90;;
33644;SDS011;19986;48.190;16.366;2023-03-23T16:13:47;39.08;;;36.50;;
33644;SDS011;19986;48.190;16.366;2023-03-23T16:16:35;39.10;;;36.60;;
33644;SDS011;19986;48.190;16.366;2023-03-23T16:19:03;40.45;;;37.47;;
33644;SDS011;19986;48.190;16.366;2023-03-23T16:21:30;38.80;;;36.00;;
33644;SDS011;19986;48.190;16.366;2023-03-23T16:23:56;39.63;;;37.25;;
33644;SDS011;19986;48.190;16.366;2023-03-23T16:26:22;39.35;;;36.97;;
33644;SDS011;19986;48.190;16.366;2023-03-23T16:28:49;39.13;;;36.53;;
33644;SDS011;19986;48.190;16.366;2023-03-23T16:31:15;40.70;;;37.65;;
33644;SDS011;19986;48.190;16.366;2023-03-23T16:33:40;40.80;;;38.40;;
33644;SDS011;19986;48.190;16.366;2023-03-23T16:36:09;41.15;;;38.20;;
33644;SDS011;19986;48.190;16.366;2023-03-23T16:38:36;39.42;;;37.15;;
33644;SDS011;19986;48.190;16.366;2023-03-23T16:41:04;37.00;;;34.50;;
33644;SDS011;19986;48.190;16.366;2023-03-23T16:43:30;39.33;;;36.92;;
33644;SDS011;19986;48.190;16.366;2023-03-23T16:45:56;39.42;;;36.88;;
33644;SDS011;19986;48.190;16.366;2023-03-23T16:48:22;40.08;;;37.60;;
33644;SDS011;19986;48.190;16.366;2023-03-23T16:50:49;41.15;;;38.35;;
33644;SDS011;19986;48.190;16.366;2023-03-23T16:53:16;41.28;;;38.58;;
33644;SDS011;19986;48.190;16.366;2023-03-23T16:55:43;42.10;;;39.25;;
33644;SDS011;19986;48.190;16.366;2023-03-23T16:58:12;41.55;;;38.92;;